Currently 42°F in French Valley, California, USA
42°F
62°F / 30°F
calm
0.00"
Saturday, February 24, 2018 11:28 PM PST

French Valley, California Weather Summary
Last 36 Hours

Temperature Winds Hourly Humidity Dewpoint
Time Report Norm Report Norm Max Gusts Precip. Rpt. Norm Rpt. Norm Pressure
1Sat 11:28 PM  41.8°F  49°F  calm  1 mph  none  0.00"  90%  84%  39°F  44°F  30.27"
Sat 11:00 PM  42.7°F  49°F  calm  2 mph  7 mph  0.00"  90%  84%  40°F  44°F  30.26"
Sat 10:00 PM  44.4°F  50°F  4 mph SE  2 mph  6 mph  0.00"  84%  83%  40°F  45°F  30.27"
Sat 09:00 PM  45.5°F  51°F  3 mph E  3 mph  8 mph  0.00"  79%  81%  39°F  45°F  30.28"
Sat 08:00 PM  45.9°F  52°F  4 mph SE  3 mph  7 mph  0.00"  74%  77%  38°F  45°F  30.27"
Sat 07:00 PM  48.1°F  54°F  4 mph SE  4 mph  13 mph  0.00"  65%  73%  37°F  45°F  30.27"
Sat 06:00 PM  52.5°F  57°F  5 mph S  4 mph  14 mph  0.00"  51%  67%  34°F  45°F  30.26"
Sat 05:00 PM  56.8°F  60°F  8 mph SW  6 mph  18 mph  0.00"  38%  59%  31°F  45°F  30.25"
Sat 04:00 PM  59.9°F  63°F  8 mph S  6 mph  17 mph  0.00"  36%  53%  32°F  45°F  30.24"
Sat 03:00 PM  61.2°F  64°F  3 mph SW  6 mph  14 mph  0.00"  28%  51%  26°F  44°F  30.26"
2Sat 02:46 PM  61.8°F  64°F  6 mph SW  6 mph  10 mph  ----  27%  51%  26°F  44°F  30.26"
Sat 02:00 PM  60.0°F  64°F  3 mph SW  6 mph  10 mph  0.00"  28%  50%  26°F  44°F  30.28"
Sat 01:00 PM  58.7°F  63°F  5 mph SW  5 mph  11 mph  0.00"  28%  51%  24°F  44°F  30.32"
Sat 12:00 PM  55.9°F  61°F  2 mph SW  4 mph  12 mph  0.00"  31%  53%  24°F  44°F  30.36"
Sat 11:00 AM  53.6°F  59°F  8 mph W  4 mph  10 mph  0.00"  34%  59%  25°F  44°F  30.40"
Sat 10:00 AM  51.1°F  56°F  calm  4 mph  6 mph  0.00"  46%  67%  30°F  45°F  30.43"
Sat 09:00 AM  45.4°F  52°F  2 mph NW  3 mph  6 mph  0.00"  60%  76%  32°F  45°F  30.44"
Sat 08:00 AM  38.0°F  49°F  calm  2 mph  6 mph  0.00"  70%  84%  29°F  44°F  30.45"
Sat 07:00 AM  32.0°F  45°F  calm  2 mph  none  0.00"  86%  87%  28°F  42°F  30.43"
3Sat 06:23 AM  30.5°F  45°F  calm  2 mph  none  ----  86%  88%  27°F  41°F  30.43"
Sat 06:00 AM  32.8°F  45°F  calm  2 mph  5 mph  0.00"  85%  88%  29°F  41°F  30.42"
Sat 05:00 AM  32.3°F  45°F  calm  1 mph  6 mph  0.00"  84%  88%  28°F  42°F  30.42"
Sat 04:00 AM  34.1°F  46°F  calm  2 mph  5 mph  0.00"  83%  88%  29°F  42°F  30.40"
Sat 03:00 AM  35.3°F  47°F  2 mph S  2 mph  6 mph  0.00"  83%  87%  31°F  43°F  30.41"
Sat 02:00 AM  35.5°F  47°F  calm  2 mph  4 mph  0.00"  83%  86%  31°F  43°F  30.40"
Sat 01:00 AM  35.9°F  48°F  calm  2 mph  3 mph  0.00"  85%  85%  32°F  43°F  30.39"
Sat 12:00 AM  37.2°F  48°F  calm  2 mph  4 mph  0.00"  85%  85%  33°F  44°F  30.38"
Fri 11:00 PM  39.0°F  49°F  calm  2 mph  3 mph  0.00"  82%  85%  34°F  44°F  30.36"
Fri 10:00 PM  40.5°F  50°F  calm  2 mph  5 mph  0.00"  83%  84%  36°F  45°F  30.34"
Fri 09:00 PM  43.0°F  51°F  4 mph SE  3 mph  9 mph  0.00"  81%  82%  37°F  45°F  30.32"
Fri 08:00 PM  44.7°F  52°F  2 mph SE  3 mph  5 mph  0.00"  69%  78%  35°F  46°F  30.30"
Fri 07:00 PM  47.5°F  54°F  calm  4 mph  8 mph  0.00"  63%  75%  35°F  46°F  30.28"
Fri 06:00 PM  48.5°F  56°F  3 mph SE  4 mph  19 mph  0.00"  63%  68%  36°F  46°F  30.27"
Fri 05:00 PM  52.2°F  60°F  2 mph S  5 mph  11 mph  0.00"  53%  60%  35°F  46°F  30.23"
Fri 04:00 PM  55.1°F  62°F  7 mph NW  6 mph  12 mph  0.00"  32%  54%  24°F  45°F  30.21"
Fri 03:00 PM  54.7°F  63°F  7 mph NW  6 mph  17 mph  0.00"  29%  52%  22°F  45°F  30.20"
Fri 02:00 PM  54.8°F  63°F  9 mph W  6 mph  15 mph  0.00"  34%  51%  26°F  44°F  30.21"
Fri 01:00 PM  52.8°F  63°F  10 mph W  6 mph  14 mph  0.00"  41%  51%  29°F  44°F  30.22"
Fri 12:00 PM  52.7°F  62°F  2 mph SE  4 mph  15 mph  0.00"  47%  54%  32°F  44°F  30.25"

  1. Current weather data. No green row appears if the current weather data is also the high or low for the current day.
  2. High temperature for the current day.
  3. Low temperature for the current day.

The French Valley, California weather pages are a service of WeatherCurrents. French Valley is located in southwestern Riverside County, California, north of Temecula, east of Murrieta, and south of Winchester. French Valley is bordered by Lake Skinner.
Copyright ©Sat Feb 24 23:28:59 PST 2018  WeatherCurrents. All rights reserved. - Submit questions and comments - Privacy Policy

This page automatically refreshes every 10 minutes.